Connexion S'enregistrer

Connexion à votre compte

Identifiant
Mot de passe
Maintenir la connexion active sur ce site

Créer un compte

Pour valider ce formulaire, vous devez remplir tous les champs.
Nom
Identifiant
Mot de passe
Répétez le mot de passe
Adresse e-mail
Répétez l'adresse e-mail

Nous contacter

 Téléphone : +33 (0)4 79 54 41 81

Coordonnées détaillées et accès : cliquez ici

 
LFLB °C
    Ferienhaus Ostsee
[source: ADDS]
METAR
LFLB 231100Z AUTO 36009KT CAVOK 23/17 Q1023 NOSIG =
TAF LFLB 230500Z 2306/2406 36008KT 9999 BKN025 BECMG 2308/2311 CAVOK BECMG 2321/2324 18004KT
TAF
TAF LFLB 230500Z 2306/2406 36008KT 9999 BKN025 BECMG 2308/2311 CAVOK BECMG 2321/2324 18004KT =
SR / SS: 04:46 / 18:32 UTC (Lever/Coucher du soleil le 2019-08-23)
JSN Boot template designed by JoomlaShine.com